Pasco, Washington
Current Conditions -  °F | °C
As of 6:53 AM on Monday 22 Dec 2014 (Local Time) from KPSC Reporting Station
Clear Clear  
Wind Chill: 32°   Ceiling: Unl
Heat Index: 36°   Visibility: 10mi
Dew Point: 36°   Wind: 5mph
Humidity: 100%   Direction: 310°NW
Pressure: 30.18"   Gusts: NA
Location:  46.24°N, 119.09°W
Report Text: KPSC 221453Z 31004KT 10SM CLR 02/02 A3018 RMK AO2 SLP222 T00220022 51028
Loading
Personal Weather Stations






























Interactive Weather Map New forecast layout! Learn more

10-Day Weather Forecast

Advertisements
Track Severe Weather on mobile